createdAt,value
2023-05-21T00:00:22.738Z,21.10
2023-05-21T00:02:49.899Z,19.50
2023-05-21T00:05:18.650Z,21.65
2023-05-21T00:07:47.536Z,19.80
2023-05-21T00:10:14.694Z,20.07
2023-05-21T00:12:42.048Z,21.70
2023-05-21T00:15:09.759Z,21.70
2023-05-21T00:17:37.312Z,20.58
2023-05-21T00:20:07.577Z,20.83
2023-05-21T00:22:36.471Z,20.33
2023-05-21T00:25:04.370Z,21.05
2023-05-21T00:27:31.413Z,19.60
2023-05-21T00:29:58.514Z,19.70
2023-05-21T00:32:25.829Z,20.52
2023-05-21T00:34:52.991Z,20.15
2023-05-21T00:37:20.914Z,19.00
2023-05-21T00:39:48.185Z,20.15
2023-05-21T00:42:18.507Z,21.65
2023-05-21T00:44:46.669Z,22.45
2023-05-21T00:47:14.840Z,20.13
2023-05-21T00:49:42.672Z,19.70
2023-05-21T00:52:10.194Z,19.40
2023-05-21T00:54:37.288Z,21.23
2023-05-21T00:57:05.140Z,20.40
2023-05-21T00:59:33.746Z,20.15
2023-05-21T01:02:05.636Z,21.15
2023-05-21T01:04:32.814Z,20.40
2023-05-21T01:06:59.884Z,19.48
2023-05-21T01:09:28.378Z,19.92
2023-05-21T01:11:56.560Z,19.80
2023-05-21T01:14:25.163Z,21.30
2023-05-21T01:16:53.167Z,20.98
2023-05-21T01:19:24.561Z,20.90
2023-05-21T01:21:56.555Z,19.92
2023-05-21T01:24:23.641Z,19.70
2023-05-21T01:26:50.762Z,20.63
2023-05-21T01:29:18.150Z,20.05
2023-05-21T01:32:07.440Z,21.52
2023-05-21T01:34:49.025Z,19.67
2023-05-21T01:37:43.637Z,20.42
2023-05-21T01:40:40.841Z,20.20
2023-05-21T01:43:09.814Z,19.75
2023-05-21T01:45:40.769Z,20.40
2023-05-21T01:48:09.694Z,20.85
2023-05-21T01:50:39.206Z,20.92
2023-05-21T01:53:06.293Z,21.42
2023-05-21T01:55:34.198Z,19.45
2023-05-21T01:58:02.619Z,21.10
2023-05-21T02:00:32.361Z,19.85
2023-05-21T02:02:59.968Z,20.35
2023-05-21T02:05:27.152Z,19.88
2023-05-21T02:07:55.087Z,19.33
2023-05-21T02:10:22.287Z,20.02
2023-05-21T02:12:49.327Z,19.65
2023-05-21T02:15:18.220Z,21.52
2023-05-21T02:17:46.693Z,20.30
2023-05-21T02:20:14.684Z,21.25
2023-05-21T02:22:46.506Z,20.00
2023-05-21T02:25:18.714Z,20.55
2023-05-21T02:27:47.131Z,18.95
2023-05-21T02:30:16.375Z,18.45
2023-05-21T02:32:45.178Z,19.65
2023-05-21T02:35:13.362Z,17.50
2023-05-21T02:37:41.070Z,20.65
2023-05-21T02:40:10.790Z,18.52
2023-05-21T02:42:40.246Z,20.17
2023-05-21T02:45:12.017Z,19.08
2023-05-21T02:47:39.368Z,18.92
2023-05-21T02:50:08.099Z,21.00
2023-05-21T02:52:35.813Z,19.85
2023-05-21T02:55:02.974Z,21.30
2023-05-21T02:57:30.049Z,20.27
2023-05-21T02:59:57.042Z,20.55
2023-05-21T03:02:24.301Z,21.20
2023-05-21T03:04:51.748Z,22.70
2023-05-21T03:07:20.308Z,22.05
2023-05-21T03:09:47.536Z,20.35
2023-05-21T03:12:14.731Z,20.02
2023-05-21T03:14:46.709Z,19.88
2023-05-21T03:17:17.269Z,18.52
2023-05-21T03:19:45.753Z,18.98
2023-05-21T03:22:12.789Z,20.50
2023-05-21T03:24:41.604Z,21.40
2023-05-21T03:27:08.670Z,19.92
2023-05-21T03:29:36.287Z,19.40
2023-05-21T03:32:03.623Z,20.08
2023-05-21T03:34:31.667Z,19.65
2023-05-21T03:36:58.664Z,20.33
2023-05-21T03:39:25.890Z,21.45
2023-05-21T03:41:52.979Z,21.45
2023-05-21T03:44:20.030Z,22.63
2023-05-21T03:46:47.065Z,22.30
2023-05-21T03:49:15.117Z,21.90
2023-05-21T03:51:42.148Z,20.17
2023-05-21T03:54:09.250Z,20.67
2023-05-21T03:56:36.291Z,20.55
2023-05-21T03:59:03.347Z,21.17
2023-05-21T04:01:30.910Z,21.05
2023-05-21T04:03:58.207Z,21.15
2023-05-21T04:06:25.393Z,22.98
2023-05-21T04:08:52.533Z,22.42
2023-05-21T04:11:19.564Z,24.17
2023-05-21T04:13:48.261Z,25.58
2023-05-21T04:16:19.518Z,25.90
2023-05-21T04:18:47.582Z,25.13
2023-05-21T04:21:14.647Z,27.00
2023-05-21T04:23:41.667Z,25.13
2023-05-21T04:26:08.938Z,26.15
2023-05-21T04:28:36.717Z,28.25
2023-05-21T04:31:03.816Z,24.10
2023-05-21T04:33:30.924Z,26.52
2023-05-21T04:35:58.117Z,26.27
2023-05-21T04:38:26.118Z,23.45
2023-05-21T04:40:53.692Z,24.15
2023-05-21T04:43:26.528Z,22.73
2023-05-21T04:45:57.241Z,22.48
2023-05-21T04:48:27.674Z,22.55
2023-05-21T04:50:56.269Z,22.60
2023-05-21T04:53:23.882Z,22.83
2023-05-21T04:55:50.960Z,21.90
2023-05-21T04:58:19.563Z,21.08
2023-05-21T05:00:47.268Z,21.27
2023-05-21T05:03:14.784Z,20.85
2023-05-21T05:05:42.211Z,21.88
2023-05-21T05:08:09.304Z,21.20
2023-05-21T05:10:36.643Z,21.33
2023-05-21T05:13:03.840Z,21.40
2023-05-21T05:15:31.269Z,20.40
2023-05-21T05:17:58.388Z,19.57
2023-05-21T05:20:25.515Z,19.67
2023-05-21T05:22:52.504Z,19.53
2023-05-21T05:25:19.623Z,20.60
2023-05-21T05:27:46.587Z,19.67
2023-05-21T05:30:14.358Z,20.90
2023-05-21T05:32:41.430Z,20.63
2023-05-21T05:35:09.081Z,19.37
2023-05-21T05:37:36.609Z,19.03
2023-05-21T05:40:04.717Z,20.60
2023-05-21T05:42:31.813Z,19.20
2023-05-21T05:44:58.848Z,20.90
2023-05-21T05:47:25.890Z,20.43
2023-05-21T05:49:52.868Z,19.70
2023-05-21T05:52:19.863Z,19.80
2023-05-21T05:54:47.628Z,19.30
2023-05-21T05:57:14.859Z,19.60
2023-05-21T05:59:41.887Z,18.40
2023-05-21T06:02:08.907Z,17.67
2023-05-21T06:04:36.086Z,18.57
2023-05-21T06:07:03.171Z,18.30
2023-05-21T06:09:30.230Z,18.63
2023-05-21T06:11:57.253Z,18.43
2023-05-21T06:14:24.215Z,17.37
2023-05-21T06:16:51.218Z,16.60
2023-05-21T06:19:18.243Z,16.07
2023-05-21T06:21:45.264Z,16.47
2023-05-21T06:24:12.305Z,14.50
2023-05-21T06:26:39.354Z,14.43
2023-05-21T06:29:06.468Z,13.27
2023-05-21T06:31:33.562Z,14.20
2023-05-21T06:34:01.799Z,14.10
2023-05-21T06:36:30.445Z,13.67
2023-05-21T06:38:57.538Z,14.50
2023-05-21T06:41:24.596Z,13.53
2023-05-21T06:43:51.785Z,13.67
2023-05-21T06:46:18.912Z,13.80
2023-05-21T06:48:48.639Z,14.50
2023-05-21T06:51:15.757Z,14.50
2023-05-21T06:53:42.778Z,14.00
2023-05-21T06:56:09.843Z,13.13
2023-05-21T06:58:36.951Z,14.33
2023-05-21T07:01:04.063Z,13.27
2023-05-21T07:03:31.407Z,13.40
2023-05-21T07:05:58.944Z,12.43
2023-05-21T07:08:26.025Z,12.30
2023-05-21T07:10:53.089Z,12.23
2023-05-21T07:13:20.201Z,12.43
2023-05-21T07:15:47.300Z,13.43
2023-05-21T07:18:14.475Z,12.20
2023-05-21T07:20:41.589Z,10.97
2023-05-21T07:23:08.702Z,12.63
2023-05-21T07:25:36.337Z,11.40
2023-05-21T07:28:05.895Z,11.27
2023-05-21T07:30:33.693Z,11.57
2023-05-21T07:33:00.726Z,11.73
2023-05-21T07:35:27.899Z,11.40
2023-05-21T07:37:54.965Z,11.13
2023-05-21T07:40:22.027Z,11.60
2023-05-21T07:42:49.064Z,11.30
2023-05-21T07:45:16.080Z,11.20
2023-05-21T07:47:45.906Z,10.83
2023-05-21T07:50:14.138Z,10.27
2023-05-21T07:52:41.260Z,10.80
2023-05-21T07:55:10.356Z,10.63
2023-05-21T07:57:37.550Z,10.87
2023-05-21T08:00:08.467Z,10.40
2023-05-21T08:02:36.070Z,11.30
2023-05-21T08:05:03.663Z,10.97
2023-05-21T08:07:32.120Z,10.03
2023-05-21T08:09:59.366Z,9.87
2023-05-21T08:12:26.368Z,10.30
2023-05-21T08:14:53.390Z,9.80
2023-05-21T08:17:20.611Z,10.60
2023-05-21T08:19:47.754Z,10.23
2023-05-21T08:22:14.810Z,9.70
2023-05-21T08:24:41.901Z,10.20
2023-05-21T08:27:08.982Z,9.83
2023-05-21T08:29:36.087Z,9.67
2023-05-21T08:32:03.295Z,9.43
2023-05-21T08:34:30.445Z,10.30
2023-05-21T08:36:57.511Z,9.80
2023-05-21T08:39:24.580Z,10.10
2023-05-21T08:41:58.132Z,9.77
2023-05-21T08:44:28.602Z,9.50
2023-05-21T08:46:58.018Z,10.10
2023-05-21T08:49:30.571Z,9.67
2023-05-21T08:51:59.153Z,9.40
2023-05-21T08:54:28.429Z,8.60
2023-05-21T08:56:56.765Z,9.63
2023-05-21T08:59:24.303Z,10.30
2023-05-21T09:01:53.092Z,9.50
2023-05-21T09:04:21.927Z,9.37
2023-05-21T09:06:50.606Z,8.87
2023-05-21T09:09:33.480Z,9.87
2023-05-21T09:12:01.086Z,9.67
2023-05-21T09:14:29.239Z,9.60
2023-05-21T09:16:56.355Z,8.83
2023-05-21T09:19:23.858Z,9.97
2023-05-21T09:21:53.907Z,9.53
2023-05-21T09:24:23.857Z,8.67
2023-05-21T09:26:51.483Z,9.00
2023-05-21T09:29:18.804Z,9.30
2023-05-21T09:31:46.199Z,8.40
2023-05-21T09:34:14.358Z,8.73
2023-05-21T09:36:41.470Z,8.20
2023-05-21T09:39:09.097Z,8.67
2023-05-21T09:41:37.258Z,8.90
2023-05-21T09:44:04.975Z,8.50
2023-05-21T09:46:41.899Z,8.17
2023-05-21T09:49:26.813Z,8.63
2023-05-21T09:51:59.877Z,7.90
2023-05-21T09:54:33.273Z,9.27
2023-05-21T09:57:03.735Z,7.90
2023-05-21T09:59:40.984Z,7.80
2023-05-21T10:02:22.960Z,8.13
2023-05-21T10:04:53.028Z,8.10
2023-05-21T10:07:25.999Z,8.63
2023-05-21T10:09:58.143Z,8.50
2023-05-21T10:12:26.141Z,8.57
2023-05-21T10:15:01.404Z,9.00
2023-05-21T10:17:31.146Z,7.50
2023-05-21T10:20:00.991Z,7.80
2023-05-21T10:22:28.913Z,7.43
2023-05-21T10:24:57.413Z,9.10
2023-05-21T10:27:24.591Z,8.33
2023-05-21T10:29:53.529Z,8.40
2023-05-21T10:32:23.025Z,7.83
2023-05-21T10:34:53.608Z,8.33
2023-05-21T10:37:29.861Z,7.80
2023-05-21T10:39:58.149Z,7.77
2023-05-21T10:42:31.164Z,8.10
2023-05-21T10:45:39.673Z,8.27
2023-05-21T10:48:23.872Z,8.13
2023-05-21T10:51:08.785Z,7.67
2023-05-21T10:54:09.147Z,8.10
2023-05-21T10:57:00.372Z,8.20
2023-05-21T10:59:47.040Z,7.90
2023-05-21T11:02:15.915Z,8.10
2023-05-21T11:04:46.255Z,7.90
2023-05-21T11:07:13.493Z,8.77
2023-05-21T11:09:40.589Z,8.33
2023-05-21T11:12:10.344Z,7.90
2023-05-21T11:14:40.300Z,8.30
2023-05-21T11:17:12.736Z,7.73
2023-05-21T11:19:47.655Z,7.37
2023-05-21T11:22:25.662Z,7.63
2023-05-21T11:24:56.819Z,8.83
2023-05-21T11:27:41.140Z,8.27
2023-05-21T11:30:10.005Z,8.03
2023-05-21T11:32:41.509Z,7.80
2023-05-21T11:35:09.141Z,8.77
2023-05-21T11:37:37.975Z,8.00
2023-05-21T11:40:25.984Z,7.97
2023-05-21T11:42:55.341Z,7.77
2023-05-21T11:45:31.427Z,9.00
2023-05-21T11:47:58.987Z,8.70
2023-05-21T11:50:26.151Z,8.10
2023-05-21T11:52:53.582Z,7.57
2023-05-21T11:55:26.133Z,8.07
2023-05-21T11:57:54.808Z,8.20
2023-05-21T12:00:22.028Z,8.60
2023-05-21T12:02:52.350Z,8.37
2023-05-21T12:05:19.664Z,8.40
2023-05-21T12:07:51.167Z,8.60
2023-05-21T12:10:21.930Z,8.70
2023-05-21T12:12:55.684Z,8.60
2023-05-21T12:15:25.241Z,8.00
2023-05-21T12:17:53.270Z,8.20
2023-05-21T12:20:20.979Z,8.10
2023-05-21T12:22:50.443Z,8.43
2023-05-21T12:25:21.378Z,8.63
2023-05-21T12:27:52.830Z,7.33
2023-05-21T12:30:21.283Z,7.77
2023-05-21T12:32:49.632Z,7.87
2023-05-21T12:35:24.186Z,8.40
2023-05-21T12:37:52.395Z,7.33
2023-05-21T12:40:20.645Z,7.80
2023-05-21T12:42:47.716Z,8.00
2023-05-21T12:45:15.165Z,8.30
2023-05-21T12:47:47.847Z,8.10
2023-05-21T12:50:14.925Z,7.60
2023-05-21T12:52:44.873Z,7.27
2023-05-21T12:55:15.125Z,7.23
2023-05-21T12:57:44.018Z,7.47
2023-05-21T13:00:16.177Z,7.20
2023-05-21T13:02:44.575Z,7.20
2023-05-21T13:05:17.925Z,7.47
2023-05-21T13:07:47.466Z,7.30
2023-05-21T13:10:16.845Z,6.93
2023-05-21T13:12:45.789Z,6.90
2023-05-21T13:15:13.349Z,7.17
2023-05-21T13:17:40.502Z,7.20
2023-05-21T13:20:12.892Z,7.00
2023-05-21T13:22:47.194Z,6.67
2023-05-21T13:25:25.037Z,6.43
2023-05-21T13:27:53.746Z,6.60
2023-05-21T13:30:22.402Z,6.80
2023-05-21T13:32:54.680Z,6.50
2023-05-21T13:35:22.974Z,6.40
2023-05-21T13:37:52.140Z,7.03
2023-05-21T13:40:24.548Z,6.27
2023-05-21T13:42:51.713Z,6.70
2023-05-21T13:45:20.467Z,6.57
2023-05-21T13:47:48.389Z,7.10
2023-05-21T13:50:16.406Z,6.30
2023-05-21T13:52:43.569Z,6.23
2023-05-21T13:55:11.018Z,6.47
2023-05-21T13:57:38.242Z,6.07
2023-05-21T14:00:06.170Z,6.47
2023-05-21T14:02:34.749Z,6.47
2023-05-21T14:05:02.009Z,5.80
2023-05-21T14:07:29.209Z,7.00
2023-05-21T14:09:56.219Z,6.13
2023-05-21T14:12:23.289Z,5.90
2023-05-21T14:14:50.535Z,5.80
2023-05-21T14:17:17.629Z,5.80
2023-05-21T14:19:44.701Z,6.10
2023-05-21T14:22:11.791Z,5.67
2023-05-21T14:24:38.809Z,6.80
2023-05-21T14:27:05.982Z,6.73
2023-05-21T14:29:33.641Z,6.30
2023-05-21T14:32:00.780Z,5.90
2023-05-21T14:34:27.935Z,5.70
2023-05-21T14:36:55.035Z,6.43
2023-05-21T14:39:22.450Z,5.67
2023-05-21T14:41:49.566Z,6.17
2023-05-21T14:44:16.670Z,5.47
2023-05-21T14:46:43.829Z,6.40
2023-05-21T14:49:12.055Z,6.20
2023-05-21T14:51:39.056Z,6.33
2023-05-21T14:54:06.272Z,5.50
2023-05-21T14:56:33.331Z,6.30
2023-05-21T14:59:00.605Z,7.20
2023-05-21T15:01:27.874Z,6.97
2023-05-21T15:03:57.118Z,6.00
2023-05-21T15:06:24.494Z,5.90
2023-05-21T15:08:51.576Z,6.37
2023-05-21T15:11:18.657Z,6.67
2023-05-21T15:13:46.506Z,6.80
2023-05-21T15:16:13.561Z,6.10
2023-05-21T15:18:41.377Z,5.83
2023-05-21T15:21:08.465Z,6.20
2023-05-21T15:23:35.570Z,6.03
2023-05-21T15:26:02.793Z,5.90
2023-05-21T15:28:29.873Z,6.30
2023-05-21T15:30:57.075Z,6.20
2023-05-21T15:33:24.230Z,6.20
2023-05-21T15:35:51.477Z,6.23
2023-05-21T15:38:18.706Z,6.30
2023-05-21T15:40:45.802Z,6.67
2023-05-21T15:43:12.950Z,6.00
2023-05-21T15:45:40.335Z,6.00
2023-05-21T15:48:07.716Z,4.47
2023-05-21T15:50:38.503Z,4.13
2023-05-21T15:53:05.751Z,4.50
2023-05-21T15:55:33.869Z,4.27
2023-05-21T15:58:02.410Z,4.40
2023-05-21T16:00:29.838Z,4.57
2023-05-21T16:02:56.908Z,4.10
2023-05-21T16:05:24.079Z,4.97
2023-05-21T16:07:51.607Z,5.37
2023-05-21T16:10:18.664Z,6.30
2023-05-21T16:12:45.998Z,6.50
2023-05-21T16:15:13.429Z,6.27
2023-05-21T16:17:40.932Z,5.93
2023-05-21T16:20:08.430Z,6.17
2023-05-21T16:22:35.540Z,6.43
2023-05-21T16:25:03.381Z,16.53
2023-05-21T16:27:30.471Z,7.80
2023-05-21T16:29:58.449Z,6.60
2023-05-21T16:32:25.630Z,5.53
2023-05-21T16:34:52.834Z,6.70
2023-05-21T16:37:19.999Z,6.03
2023-05-21T16:39:47.099Z,5.50
2023-05-21T16:42:14.155Z,5.73
2023-05-21T16:44:41.286Z,6.30
2023-05-21T16:47:08.676Z,6.40
2023-05-21T16:49:35.779Z,6.70
2023-05-21T16:52:03.494Z,6.27
2023-05-21T16:54:30.802Z,6.17
2023-05-21T16:56:57.958Z,5.40
2023-05-21T16:59:25.060Z,5.80
2023-05-21T17:01:52.162Z,6.53
2023-05-21T17:04:19.327Z,6.90
2023-05-21T17:06:46.463Z,7.50
2023-05-21T17:09:13.641Z,6.70
2023-05-21T17:11:43.371Z,6.40
2023-05-21T17:14:11.972Z,5.90
2023-05-21T17:16:42.980Z,5.90
2023-05-21T17:19:10.363Z,6.40
2023-05-21T17:21:37.763Z,6.70
2023-05-21T17:24:05.173Z,7.80
2023-05-21T17:26:32.240Z,6.70
2023-05-21T17:28:59.320Z,6.50
2023-05-21T17:31:27.107Z,6.67
2023-05-21T17:33:56.342Z,6.20
2023-05-21T17:36:23.445Z,6.20
2023-05-21T17:38:51.097Z,6.70
2023-05-21T17:41:19.239Z,5.83
2023-05-21T17:43:46.343Z,5.90
2023-05-21T17:46:17.757Z,6.10
2023-05-21T17:48:45.763Z,6.03
2023-05-21T17:51:14.220Z,6.50
2023-05-21T17:53:41.689Z,6.30
2023-05-21T17:56:10.631Z,6.67
2023-05-21T17:58:37.799Z,6.20
2023-05-21T18:01:04.908Z,6.60
2023-05-21T18:03:32.201Z,6.77
2023-05-21T18:05:59.370Z,7.13
2023-05-21T18:08:27.113Z,6.83
2023-05-21T18:10:54.213Z,6.40
2023-05-21T18:13:21.561Z,6.27
2023-05-21T18:15:49.069Z,6.90
2023-05-21T18:18:20.656Z,7.13
2023-05-21T18:20:49.563Z,7.00
2023-05-21T18:23:17.474Z,7.00
2023-05-21T18:25:44.607Z,6.47
2023-05-21T18:28:11.972Z,6.60
2023-05-21T18:30:39.910Z,7.10
2023-05-21T18:33:08.531Z,8.10
2023-05-21T18:35:35.831Z,8.27
2023-05-21T18:38:04.306Z,8.70
2023-05-21T18:40:33.423Z,8.70
2023-05-21T18:43:00.884Z,8.17
2023-05-21T18:45:28.195Z,8.47
2023-05-21T18:47:56.179Z,8.37
2023-05-21T18:50:23.370Z,8.20
2023-05-21T18:52:54.077Z,7.50
2023-05-21T18:55:21.478Z,8.43
2023-05-21T18:57:50.997Z,7.60
2023-05-21T19:00:18.438Z,7.77
2023-05-21T19:02:47.095Z,8.37
2023-05-21T19:05:14.715Z,8.17
2023-05-21T19:07:42.385Z,8.13
2023-05-21T19:10:11.783Z,7.60
2023-05-21T19:12:39.998Z,8.73
2023-05-21T19:15:07.899Z,12.27
2023-05-21T19:17:36.446Z,8.60
2023-05-21T19:20:05.721Z,8.57
2023-05-21T19:22:33.242Z,9.50
2023-05-21T19:25:01.268Z,9.17
2023-05-21T19:27:29.582Z,8.70
2023-05-21T19:29:56.735Z,7.70
2023-05-21T19:32:24.054Z,8.03
2023-05-21T19:34:52.444Z,9.07
2023-05-21T19:37:20.057Z,8.67
2023-05-21T19:39:50.478Z,8.60
2023-05-21T19:42:19.985Z,8.67
2023-05-21T19:44:47.133Z,9.10
2023-05-21T19:47:14.767Z,8.67
2023-05-21T19:49:42.430Z,9.50
2023-05-21T19:52:10.685Z,8.77
2023-05-21T19:54:37.749Z,8.10
2023-05-21T19:57:05.047Z,9.43
2023-05-21T19:59:32.195Z,8.70
2023-05-21T20:01:59.221Z,9.90
2023-05-21T20:04:26.412Z,10.23
2023-05-21T20:06:53.571Z,9.70
2023-05-21T20:09:20.622Z,7.90
2023-05-21T20:11:48.403Z,8.53
2023-05-21T20:14:15.779Z,9.27
2023-05-21T20:16:42.996Z,8.57
2023-05-21T20:19:11.003Z,9.40
2023-05-21T20:21:38.131Z,8.80
2023-05-21T20:24:05.706Z,8.87
2023-05-21T20:26:35.130Z,7.90
2023-05-21T20:29:02.372Z,8.57
2023-05-21T20:31:29.854Z,8.90
2023-05-21T20:33:56.883Z,8.40
2023-05-21T20:36:24.000Z,8.07
2023-05-21T20:38:51.081Z,8.10
2023-05-21T20:41:18.312Z,8.70
2023-05-21T20:43:46.537Z,7.90
2023-05-21T20:46:13.693Z,8.40
2023-05-21T20:48:41.992Z,8.47
2023-05-21T20:51:09.337Z,7.83
2023-05-21T20:53:37.096Z,8.27
2023-05-21T20:56:08.412Z,8.03
2023-05-21T20:58:41.865Z,8.70
2023-05-21T21:01:10.844Z,8.70
2023-05-21T21:03:41.624Z,8.27
2023-05-21T21:06:10.170Z,8.63
2023-05-21T21:08:37.230Z,8.50
2023-05-21T21:11:04.681Z,9.20
2023-05-21T21:13:35.334Z,8.40
2023-05-21T21:16:03.973Z,8.37
2023-05-21T21:18:31.882Z,8.47
2023-05-21T21:21:02.270Z,8.77
2023-05-21T21:23:30.464Z,9.47
2023-05-21T21:25:57.714Z,8.90
2023-05-21T21:28:25.545Z,8.03
2023-05-21T21:30:53.206Z,8.63
2023-05-21T21:33:20.789Z,9.20
2023-05-21T21:35:47.839Z,8.50
2023-05-21T21:38:14.931Z,8.97
2023-05-21T21:40:41.992Z,8.93
2023-05-21T21:43:09.094Z,9.13
2023-05-21T21:45:36.583Z,8.30
2023-05-21T21:48:03.811Z,8.80
2023-05-21T21:50:30.932Z,8.63
2023-05-21T21:52:58.152Z,8.30
2023-05-21T21:55:25.240Z,9.20
2023-05-21T21:57:52.307Z,8.33
2023-05-21T22:00:19.695Z,8.93
2023-05-21T22:02:46.956Z,8.77
2023-05-21T22:05:17.278Z,9.70
2023-05-21T22:07:48.190Z,8.53
2023-05-21T22:10:16.439Z,7.97
2023-05-21T22:12:44.556Z,7.80
2023-05-21T22:15:23.214Z,8.37
2023-05-21T22:17:52.104Z,8.10
2023-05-21T22:20:19.462Z,9.60
2023-05-21T22:22:47.332Z,8.80
2023-05-21T22:25:14.674Z,8.87
2023-05-21T22:27:43.193Z,9.90
2023-05-21T22:30:10.846Z,9.07
2023-05-21T22:32:38.406Z,9.30
2023-05-21T22:35:06.632Z,9.97
2023-05-21T22:37:33.884Z,9.23
2023-05-21T22:40:01.201Z,9.40
2023-05-21T22:42:28.390Z,9.53
2023-05-21T22:44:55.794Z,9.20
2023-05-21T22:47:24.151Z,9.30
2023-05-21T22:49:54.098Z,10.40
2023-05-21T22:52:24.281Z,9.73
2023-05-21T22:54:53.133Z,10.40
2023-05-21T22:57:21.004Z,10.43
2023-05-21T22:59:48.101Z,9.17
2023-05-21T23:02:16.272Z,10.40
2023-05-21T23:04:44.541Z,9.37
2023-05-21T23:07:12.559Z,9.50
2023-05-21T23:09:39.676Z,10.33
2023-05-21T23:12:07.236Z,9.80
2023-05-21T23:14:34.421Z,9.90
2023-05-21T23:17:04.652Z,9.80
2023-05-21T23:19:33.341Z,9.53
2023-05-21T23:22:00.740Z,9.87
2023-05-21T23:24:29.829Z,9.67
2023-05-21T23:27:02.030Z,9.93
2023-05-21T23:29:31.243Z,9.60
2023-05-21T23:31:58.600Z,9.40
2023-05-21T23:34:25.938Z,9.77
2023-05-21T23:36:53.421Z,9.73
2023-05-21T23:39:21.060Z,10.80
2023-05-21T23:41:48.408Z,10.50
2023-05-21T23:44:15.759Z,9.87
2023-05-21T23:46:45.907Z,9.80
2023-05-21T23:49:13.033Z,9.50
2023-05-21T23:51:40.229Z,9.47
2023-05-21T23:54:08.278Z,10.23
2023-05-21T23:56:35.465Z,9.73
2023-05-21T23:59:04.023Z,8.80
